TAF and METAR

Decoding for American and Canadian METARs and TAFs is not fully implemented.

Could not understand the following METAR

KSAV 192053Z 12017G24KT 10SM SCT007 BKN010 OVC040 23/22 A2973 RMK AO2 PK WND 11037/2019 RAE43 SLP066 P0005 60048 T02330222 56038

TAF for Savannah/Hilton Head International Airport

KSAV 191937Z 1920/2018 11013G22KT 2SM SHRA BR FEW004 OVC009 FM200000 16013G20KT 6SM -SHRA OVC007 FM200600 23010KT P6SM OVC007 FM201500 28010KT P6SM SCT007 BKN020
Report created 19. okt 21:37

between 19. okt 22:00 - 20. okt 20:00

wind 13 knots from ESE (110°) with gusts up to 22 knots
Savannah/Hilton Head International Airport in United States of America at 14m

Latest 5 airports